createdAt,value
2022-09-12T00:02:29.727Z,97736.62
2022-09-12T00:05:00.335Z,97731.61
2022-09-12T00:07:31.773Z,97734.42
2022-09-12T00:10:01.724Z,97733.42
2022-09-12T00:12:33.213Z,97737.91
2022-09-12T00:15:03.216Z,97732.54
2022-09-12T00:17:36.427Z,97735.29
2022-09-12T00:20:10.991Z,97733.33
2022-09-12T00:22:42.497Z,97728.48
2022-09-12T00:25:14.108Z,97727.58
2022-09-12T00:27:45.547Z,97728.16
2022-09-12T00:30:15.636Z,97724.74
2022-09-12T00:32:47.295Z,97726.27
2022-09-12T00:35:18.892Z,97726.26
2022-09-12T00:37:50.346Z,97730.66
2022-09-12T00:40:20.373Z,97728.45
2022-09-12T00:42:52.376Z,97728.77
2022-09-12T00:45:29.544Z,97725.46
2022-09-12T00:48:04.424Z,97725.94
2022-09-12T00:50:35.926Z,97726.40
2022-09-12T00:53:08.161Z,97724.77
2022-09-12T00:55:45.360Z,97725.81
2022-09-12T00:58:21.464Z,97727.35
2022-09-12T01:00:53.407Z,97724.98
2022-09-12T01:03:26.034Z,97727.92
2022-09-12T01:06:05.768Z,97729.08
2022-09-12T01:08:39.032Z,97730.86
2022-09-12T01:11:12.900Z,97729.45
2022-09-12T01:13:45.036Z,97731.77
2022-09-12T01:16:17.118Z,97730.84
2022-09-12T01:18:58.669Z,97740.33
2022-09-12T01:21:43.572Z,97740.77
2022-09-12T01:24:43.498Z,97743.67
2022-09-12T01:27:24.458Z,97743.86
2022-09-12T01:30:31.068Z,97741.38
2022-09-12T01:33:29.640Z,97739.44
2022-09-12T01:36:19.356Z,97739.77
2022-09-12T01:38:59.248Z,97741.61
2022-09-12T01:41:39.334Z,97734.06
2022-09-12T01:44:24.265Z,97734.60
2022-09-12T01:47:00.377Z,97733.55
2022-09-12T01:49:48.714Z,97733.92
2022-09-12T01:52:25.595Z,97735.38
2022-09-12T01:55:06.484Z,97731.13
2022-09-12T01:57:46.243Z,97736.85
2022-09-12T02:00:18.242Z,97738.27
2022-09-12T02:02:54.665Z,97739.61
2022-09-12T02:05:30.803Z,97735.46
2022-09-12T02:08:08.110Z,97733.52
2022-09-12T02:10:46.236Z,97735.58
2022-09-12T02:13:24.263Z,97743.82
2022-09-12T02:16:02.114Z,97741.15
2022-09-12T02:18:35.266Z,97745.43
2022-09-12T02:21:08.783Z,97748.68
2022-09-12T02:23:43.431Z,97746.96
2022-09-12T02:26:21.668Z,97749.20
2022-09-12T02:28:54.049Z,97750.70
2022-09-12T02:31:28.473Z,97749.29
2022-09-12T02:34:11.332Z,97747.61
2022-09-12T02:36:50.998Z,97746.51
2022-09-12T02:39:22.588Z,97745.85
2022-09-12T02:41:56.504Z,97744.63
2022-09-12T02:44:30.505Z,97742.20
2022-09-12T02:47:05.847Z,97737.96
2022-09-12T02:49:37.732Z,97738.48
2022-09-12T02:52:09.396Z,97743.02
2022-09-12T02:54:41.111Z,97743.05
2022-09-12T02:57:22.796Z,97744.11
2022-09-12T02:59:57.927Z,97742.63
2022-09-12T03:02:41.509Z,97744.42
2022-09-12T03:05:25.340Z,97747.44
2022-09-12T03:08:14.059Z,97750.86
2022-09-12T03:11:00.942Z,97750.65
2022-09-12T03:13:41.253Z,97750.32
2022-09-12T03:16:23.143Z,97753.79
2022-09-12T03:19:03.941Z,97757.80
2022-09-12T03:21:43.061Z,97760.80
2022-09-12T03:24:18.532Z,97759.92
2022-09-12T03:26:55.828Z,97764.38
2022-09-12T03:29:29.790Z,97762.88
2022-09-12T03:32:01.638Z,97763.19
2022-09-12T03:34:33.228Z,97762.63
2022-09-12T03:37:05.054Z,97762.95
2022-09-12T03:39:36.655Z,97765.61
2022-09-12T03:42:08.272Z,97763.74
2022-09-12T03:44:39.694Z,97767.14
2022-09-12T03:47:11.482Z,97765.11
2022-09-12T03:49:42.980Z,97766.88
2022-09-12T03:52:13.044Z,97764.27
2022-09-12T03:54:44.437Z,97766.68
2022-09-12T03:57:15.875Z,97769.90
2022-09-12T03:59:45.809Z,97773.39
2022-09-12T04:02:17.504Z,97773.35
2022-09-12T04:04:49.129Z,97773.23
2022-09-12T04:07:19.095Z,97781.46
2022-09-12T04:09:50.566Z,97779.24
2022-09-12T04:12:22.242Z,97780.15
2022-09-12T04:14:53.726Z,97781.69
2022-09-12T04:17:25.188Z,97779.74
2022-09-12T04:19:55.128Z,97779.13
2022-09-12T04:22:26.537Z,97781.15
2022-09-12T04:24:57.970Z,97786.48
2022-09-12T04:27:27.989Z,97787.23
2022-09-12T04:30:00.174Z,97789.45
2022-09-12T04:32:32.876Z,97796.72
2022-09-12T04:35:04.829Z,97795.42
2022-09-12T04:37:36.503Z,97795.86
2022-09-12T04:40:09.960Z,97795.10
2022-09-12T04:42:41.447Z,97792.66
2022-09-12T04:45:13.678Z,97791.25
2022-09-12T04:47:46.491Z,97785.67
2022-09-12T04:50:18.577Z,97791.80
2022-09-12T04:52:53.431Z,97793.72
2022-09-12T04:55:25.532Z,97798.17
2022-09-12T04:57:56.940Z,97802.02
2022-09-12T05:00:29.013Z,97804.92
2022-09-12T05:03:00.482Z,97800.95
2022-09-12T05:05:30.436Z,97806.86
2022-09-12T05:08:02.005Z,97807.09
2022-09-12T05:10:33.211Z,97808.67
2022-09-12T05:13:04.602Z,97813.09
2022-09-12T05:15:36.054Z,97810.16
2022-09-12T05:18:07.589Z,97818.20
2022-09-12T05:20:37.530Z,97818.26
2022-09-12T05:23:09.086Z,97817.16
2022-09-12T05:25:40.680Z,97818.14
2022-09-12T05:28:10.632Z,97821.31
2022-09-12T05:30:42.092Z,97823.46
2022-09-12T05:33:12.173Z,97824.99
2022-09-12T05:35:51.769Z,97822.89
2022-09-12T05:38:24.370Z,97824.76
2022-09-12T05:40:55.868Z,97829.41
2022-09-12T05:43:25.811Z,97836.10
2022-09-12T05:46:03.379Z,97842.88
2022-09-12T05:48:35.252Z,97844.84
2022-09-12T05:51:09.292Z,97842.54
2022-09-12T05:53:42.066Z,97844.00
2022-09-12T05:56:15.814Z,97840.66
2022-09-12T05:58:49.718Z,97844.48
2022-09-12T06:01:21.722Z,97844.38
2022-09-12T06:03:54.639Z,97839.20
2022-09-12T06:06:27.744Z,97838.86
2022-09-12T06:09:01.426Z,97837.58
2022-09-12T06:11:34.886Z,97837.66
2022-09-12T06:14:06.748Z,97837.60
2022-09-12T06:16:38.916Z,97833.92
2022-09-12T06:19:16.820Z,97837.08
2022-09-12T06:21:49.420Z,97839.65
2022-09-12T06:24:22.191Z,97841.80
2022-09-12T06:26:53.675Z,97838.39
2022-09-12T06:29:26.654Z,97839.42
2022-09-12T06:31:58.079Z,97843.30
2022-09-12T06:34:31.006Z,97843.70
2022-09-12T06:37:03.943Z,97846.65
2022-09-12T06:39:36.585Z,97847.10
2022-09-12T06:42:08.312Z,97849.64
2022-09-12T06:44:41.222Z,97849.20
2022-09-12T06:47:13.072Z,97848.27
2022-09-12T06:49:44.762Z,97848.52
2022-09-12T06:52:16.194Z,97850.47
2022-09-12T06:54:46.647Z,97852.77
2022-09-12T06:57:18.116Z,97851.36
2022-09-12T06:59:48.035Z,97848.55
2022-09-12T07:02:19.465Z,97845.02
2022-09-12T07:04:51.809Z,97848.49
2022-09-12T07:07:24.177Z,97850.55
2022-09-12T07:09:57.675Z,97853.89
2022-09-12T07:12:30.041Z,97857.67
2022-09-12T07:15:01.551Z,97858.46
2022-09-12T07:17:31.452Z,97857.46
2022-09-12T07:20:03.072Z,97856.73
2022-09-12T07:22:34.659Z,97855.31
2022-09-12T07:25:05.125Z,97854.80
2022-09-12T07:27:37.681Z,97861.29
2022-09-12T07:30:10.463Z,97857.73
2022-09-12T07:32:41.926Z,97858.67
2022-09-12T07:35:11.907Z,97863.41
2022-09-12T07:37:43.597Z,97864.19
2022-09-12T07:40:15.186Z,97866.55
2022-09-12T07:42:47.807Z,97869.89
2022-09-12T07:45:19.245Z,97868.80
2022-09-12T07:47:49.539Z,97873.55
2022-09-12T07:50:20.986Z,97871.38
2022-09-12T07:52:50.967Z,97872.19
2022-09-12T07:55:22.498Z,97867.64
2022-09-12T07:57:53.904Z,97871.09
2022-09-12T08:00:24.025Z,97873.51
2022-09-12T08:02:56.609Z,97870.13
2022-09-12T08:05:30.964Z,97871.93
2022-09-12T08:08:02.428Z,97871.34
2022-09-12T08:10:32.392Z,97869.98
2022-09-12T08:13:03.913Z,97874.84
2022-09-12T08:15:37.095Z,97876.78
2022-09-12T08:18:08.728Z,97872.25
2022-09-12T08:20:40.199Z,97875.35
2022-09-12T08:23:10.632Z,97873.11
2022-09-12T08:25:42.119Z,97875.00
2022-09-12T08:28:12.073Z,97875.98
2022-09-12T08:30:43.531Z,97876.25
2022-09-12T08:33:15.279Z,97874.81
2022-09-12T08:35:46.784Z,97881.95
2022-09-12T08:38:16.938Z,97875.80
2022-09-12T08:40:59.428Z,97877.48
2022-09-12T08:43:44.139Z,97874.71
2022-09-12T08:46:23.699Z,97869.75
2022-09-12T08:48:57.082Z,97869.48
2022-09-12T08:51:31.179Z,97878.05
2022-09-12T08:54:03.686Z,97878.16
2022-09-12T08:56:39.959Z,97876.70
2022-09-12T08:59:11.798Z,97876.41
2022-09-12T09:01:51.914Z,97875.80
2022-09-12T09:04:37.387Z,97876.52
2022-09-12T09:07:22.091Z,97877.86
2022-09-12T09:10:09.143Z,97881.21
2022-09-12T09:12:53.001Z,97878.30
2022-09-12T09:15:49.454Z,97870.16
2022-09-12T09:18:25.014Z,97879.31
2022-09-12T09:21:01.144Z,97874.08
2022-09-12T09:23:36.043Z,97876.63
2022-09-12T09:26:14.676Z,97881.77
2022-09-12T09:28:51.349Z,97879.75
2022-09-12T09:31:24.953Z,97880.19
2022-09-12T09:33:58.589Z,97879.77
2022-09-12T09:36:42.131Z,97876.27
2022-09-12T09:39:25.595Z,97881.44
2022-09-12T09:42:09.736Z,97880.96
2022-09-12T09:44:41.573Z,97882.29
2022-09-12T09:47:13.561Z,97886.73
2022-09-12T09:49:45.098Z,97893.85
2022-09-12T09:52:17.790Z,97893.95
2022-09-12T09:54:54.530Z,97893.06
2022-09-12T09:57:47.609Z,97885.89
2022-09-12T10:00:33.847Z,97891.08
2022-09-12T10:03:25.518Z,97894.19
2022-09-12T10:05:58.256Z,97887.09
2022-09-12T10:08:31.597Z,97884.98
2022-09-12T10:11:06.138Z,97884.75
2022-09-12T10:13:41.873Z,97889.33
2022-09-12T10:16:24.660Z,97887.23
2022-09-12T10:18:58.070Z,97892.19
2022-09-12T10:21:40.216Z,97889.01
2022-09-12T10:24:22.918Z,97885.39
2022-09-12T10:26:57.701Z,97879.98
2022-09-12T10:29:32.480Z,97874.56
2022-09-12T10:32:07.134Z,97875.30
2022-09-12T10:34:43.041Z,97873.71
2022-09-12T10:37:24.581Z,97877.98
2022-09-12T10:39:59.045Z,97876.49
2022-09-12T10:42:54.461Z,97869.86
2022-09-12T10:45:30.015Z,97871.83
2022-09-12T10:48:07.376Z,97867.86
2022-09-12T10:50:43.480Z,97873.55
2022-09-12T10:53:22.841Z,97873.25
2022-09-12T10:56:07.867Z,97881.33
2022-09-12T10:59:03.815Z,97880.11
2022-09-12T11:01:44.272Z,97877.58
2022-09-12T11:04:28.205Z,97872.88
2022-09-12T11:07:15.536Z,97871.14
2022-09-12T11:09:56.483Z,97876.33
2022-09-12T11:12:33.975Z,97877.84
2022-09-12T11:15:20.114Z,97878.58
2022-09-12T11:17:57.649Z,97875.98
2022-09-12T11:20:55.007Z,97882.05
2022-09-12T11:23:47.006Z,97878.15
2022-09-12T11:26:48.683Z,97878.41
2022-09-12T11:29:27.024Z,97877.88
2022-09-12T11:32:22.723Z,97882.85
2022-09-12T11:35:03.548Z,97884.23
2022-09-12T11:37:53.268Z,97882.72
2022-09-12T11:40:33.582Z,97878.88
2022-09-12T11:43:12.886Z,97878.57
2022-09-12T11:45:46.931Z,97878.23
2022-09-12T11:48:27.985Z,97884.10
2022-09-12T11:51:01.699Z,97880.22
2022-09-12T11:53:37.589Z,97886.27
2022-09-12T11:56:15.460Z,97886.67
2022-09-12T11:58:52.717Z,97881.84
2022-09-12T12:01:28.810Z,97884.88
2022-09-12T12:04:07.612Z,97892.02
2022-09-12T12:06:49.353Z,97896.78
2022-09-12T12:09:20.918Z,97890.00
2022-09-12T12:11:57.619Z,97890.51
2022-09-12T12:14:39.399Z,97890.44
2022-09-12T12:17:18.389Z,97895.77
2022-09-12T12:20:02.155Z,97894.97
2022-09-12T12:22:36.485Z,97899.86
2022-09-12T12:25:29.993Z,97894.75
2022-09-12T12:28:04.266Z,97895.50
2022-09-12T12:31:02.957Z,97892.09
2022-09-12T12:34:11.810Z,97893.63
2022-09-12T12:36:50.289Z,97886.59
2022-09-12T12:39:55.609Z,97891.94
2022-09-12T12:43:02.598Z,97887.41
2022-09-12T12:45:59.613Z,97883.33
2022-09-12T12:48:35.325Z,97879.39
2022-09-12T12:51:27.267Z,97878.39
2022-09-12T12:54:00.410Z,97871.68
2022-09-12T12:56:40.066Z,97869.46
2022-09-12T12:59:24.150Z,97868.60
2022-09-12T13:01:59.962Z,97869.36
2022-09-12T13:04:33.989Z,97869.06
2022-09-12T13:07:09.025Z,97870.09
2022-09-12T13:09:48.351Z,97869.01
2022-09-12T13:12:24.971Z,97869.89
2022-09-12T13:15:00.851Z,97868.13
2022-09-12T13:17:38.558Z,97870.74
2022-09-12T13:20:28.197Z,97873.21
2022-09-12T13:23:00.720Z,97867.36
2022-09-12T13:25:34.730Z,97867.13
2022-09-12T13:28:15.721Z,97861.42
2022-09-12T13:30:50.112Z,97863.48
2022-09-12T13:33:27.463Z,97863.33
2022-09-12T13:36:31.870Z,97861.13
2022-09-12T13:39:18.591Z,97862.38
2022-09-12T13:42:18.610Z,97866.52
2022-09-12T13:44:54.052Z,97861.88
2022-09-12T13:47:29.496Z,97859.92
2022-09-12T13:50:02.785Z,97859.13
2022-09-12T13:52:36.266Z,97855.84
2022-09-12T13:55:16.011Z,97860.64
2022-09-12T13:57:56.958Z,97856.09
2022-09-12T14:00:31.670Z,97859.95
2022-09-12T14:03:23.213Z,97856.30
2022-09-12T14:05:58.148Z,97856.77
2022-09-12T14:08:30.267Z,97854.87
2022-09-12T14:11:08.531Z,97854.55
2022-09-12T14:13:40.676Z,97851.89
2022-09-12T14:16:13.286Z,97850.80
2022-09-12T14:18:48.378Z,97857.28
2022-09-12T14:21:34.100Z,97857.98
2022-09-12T14:24:08.536Z,97859.74
2022-09-12T14:26:41.775Z,97859.01
2022-09-12T14:29:17.822Z,97856.73
2022-09-12T14:32:00.817Z,97852.17
2022-09-12T14:34:32.429Z,97853.74
2022-09-12T14:37:08.614Z,97851.23
2022-09-12T14:39:45.622Z,97848.60
2022-09-12T14:42:19.872Z,97843.96
2022-09-12T14:45:00.165Z,97841.80
2022-09-12T14:47:41.407Z,97839.42
2022-09-12T14:50:19.585Z,97834.80
2022-09-12T14:53:06.134Z,97835.84
2022-09-12T14:55:46.245Z,97836.35
2022-09-12T14:58:28.196Z,97839.02
2022-09-12T15:01:04.609Z,97834.36
2022-09-12T15:03:38.508Z,97835.42
2022-09-12T15:06:25.542Z,97832.92
2022-09-12T15:08:58.821Z,97831.45
2022-09-12T15:11:30.490Z,97833.39
2022-09-12T15:14:13.867Z,97829.85
2022-09-12T15:16:45.873Z,97828.31
2022-09-12T15:19:17.734Z,97832.54
2022-09-12T15:21:53.849Z,97833.02
2022-09-12T15:24:25.552Z,97834.61
2022-09-12T15:26:57.061Z,97839.39
2022-09-12T15:29:28.586Z,97838.11
2022-09-12T15:32:00.056Z,97835.85
2022-09-12T15:34:31.742Z,97840.40
2022-09-12T15:37:03.144Z,97842.41
2022-09-12T15:39:33.140Z,97847.52
2022-09-12T15:42:04.757Z,97847.32
2022-09-12T15:44:36.445Z,97844.23
2022-09-12T15:47:11.401Z,97847.88
2022-09-12T15:49:42.879Z,97851.31
2022-09-12T15:52:17.412Z,97853.56
2022-09-12T15:54:49.059Z,97856.71
2022-09-12T15:57:20.500Z,97855.75
2022-09-12T15:59:52.648Z,97854.40
2022-09-12T16:02:24.282Z,97854.11
2022-09-12T16:04:55.768Z,97854.23
2022-09-12T16:07:27.470Z,97856.70
2022-09-12T16:09:59.046Z,97855.42
2022-09-12T16:12:30.641Z,97856.41
2022-09-12T16:15:02.572Z,97857.20
2022-09-12T16:17:34.049Z,97859.32
2022-09-12T16:20:06.640Z,97862.05
2022-09-12T16:22:38.538Z,97857.88
2022-09-12T16:25:11.174Z,97859.98
2022-09-12T16:27:42.898Z,97859.26
2022-09-12T16:30:14.845Z,97858.41
2022-09-12T16:32:46.568Z,97858.36
2022-09-12T16:35:18.315Z,97860.23
2022-09-12T16:37:49.926Z,97858.10
2022-09-12T16:40:21.488Z,97862.11
2022-09-12T16:42:53.009Z,97860.63
2022-09-12T16:45:24.497Z,97862.88
2022-09-12T16:47:55.914Z,97863.61
2022-09-12T16:50:25.899Z,97864.54
2022-09-12T16:52:57.399Z,97861.35
2022-09-12T16:55:32.239Z,97863.35
2022-09-12T16:58:04.016Z,97859.27
2022-09-12T17:00:35.331Z,97859.97
2022-09-12T17:03:06.823Z,97858.95
2022-09-12T17:05:38.287Z,97860.30
2022-09-12T17:08:09.995Z,97865.63
2022-09-12T17:10:44.248Z,97866.79
2022-09-12T17:13:15.736Z,97864.92
2022-09-12T17:15:47.431Z,97864.54
2022-09-12T17:18:19.077Z,97866.48
2022-09-12T17:20:50.885Z,97871.51
2022-09-12T17:23:22.515Z,97872.14
2022-09-12T17:25:54.587Z,97876.30
2022-09-12T17:28:26.282Z,97875.44
2022-09-12T17:31:02.823Z,97875.98
2022-09-12T17:33:35.696Z,97875.95
2022-09-12T17:36:10.557Z,97878.83
2022-09-12T17:38:43.185Z,97881.70
2022-09-12T17:41:17.902Z,97882.96
2022-09-12T17:43:51.805Z,97887.02
2022-09-12T17:46:24.923Z,97892.73
2022-09-12T17:48:58.389Z,97896.95
2022-09-12T17:51:31.770Z,97900.14
2022-09-12T17:54:08.804Z,97903.08
2022-09-12T17:56:50.070Z,97901.61
2022-09-12T17:59:24.968Z,97900.86
2022-09-12T18:02:16.308Z,97902.23
2022-09-12T18:04:49.030Z,97902.27
2022-09-12T18:07:22.286Z,97901.75
2022-09-12T18:09:55.289Z,97901.55
2022-09-12T18:12:28.890Z,97906.48
2022-09-12T18:15:00.692Z,97907.57
2022-09-12T18:17:33.477Z,97910.23
2022-09-12T18:20:06.470Z,97905.11
2022-09-12T18:22:38.059Z,97905.11
2022-09-12T18:25:11.180Z,97912.95
2022-09-12T18:27:43.265Z,97914.73
2022-09-12T18:30:22.828Z,97920.66
2022-09-12T18:32:55.267Z,97918.06
2022-09-12T18:35:28.276Z,97919.78
2022-09-12T18:38:00.578Z,97920.55
2022-09-12T18:40:42.827Z,97917.58
2022-09-12T18:43:18.505Z,97916.84
2022-09-12T18:45:53.319Z,97916.77
2022-09-12T18:48:27.030Z,97914.77
2022-09-12T18:51:05.936Z,97915.46
2022-09-12T18:53:38.497Z,97916.59
2022-09-12T18:56:14.660Z,97915.06
2022-09-12T18:58:51.446Z,97916.33
2022-09-12T19:01:26.893Z,97914.41
2022-09-12T19:03:59.163Z,97914.50
2022-09-12T19:06:33.438Z,97915.91
2022-09-12T19:09:07.982Z,97913.95
2022-09-12T19:11:42.654Z,97914.63
2022-09-12T19:14:14.279Z,97917.80
2022-09-12T19:16:45.854Z,97918.02
2022-09-12T19:19:17.825Z,97917.07
2022-09-12T19:21:49.455Z,97914.98
2022-09-12T19:24:21.935Z,97914.00
2022-09-12T19:26:53.696Z,97915.68
2022-09-12T19:29:25.318Z,97917.20
2022-09-12T19:31:57.292Z,97920.04
2022-09-12T19:34:28.946Z,97913.64
2022-09-12T19:37:00.562Z,97912.86
2022-09-12T19:39:32.629Z,97910.98
2022-09-12T19:42:13.782Z,97909.82
2022-09-12T19:44:45.345Z,97906.93
2022-09-12T19:47:16.916Z,97905.15
2022-09-12T19:49:48.721Z,97906.44
2022-09-12T19:52:20.397Z,97908.00
2022-09-12T19:54:51.929Z,97906.66
2022-09-12T19:57:22.049Z,97908.18
2022-09-12T19:59:53.638Z,97905.88
2022-09-12T20:02:27.932Z,97901.51
2022-09-12T20:04:59.505Z,97898.43
2022-09-12T20:07:31.016Z,97895.67
2022-09-12T20:10:01.016Z,97893.09
2022-09-12T20:12:32.530Z,97889.98
2022-09-12T20:15:02.543Z,97893.05
2022-09-12T20:17:34.325Z,97892.06
2022-09-12T20:20:07.206Z,97891.80
2022-09-12T20:22:40.246Z,97891.15
2022-09-12T20:25:12.220Z,97893.36
2022-09-12T20:27:44.024Z,97890.71
2022-09-12T20:30:16.503Z,97888.39
2022-09-12T20:32:48.047Z,97884.73
2022-09-12T20:35:19.931Z,97886.08
2022-09-12T20:37:51.428Z,97883.71
2022-09-12T20:40:21.457Z,97879.68
2022-09-12T20:42:52.969Z,97880.86
2022-09-12T20:45:22.957Z,97881.34
2022-09-12T20:47:54.390Z,97885.63
2022-09-12T20:50:24.387Z,97881.21
2022-09-12T20:52:56.721Z,97885.19
2022-09-12T20:55:32.782Z,97880.80
2022-09-12T20:58:05.824Z,97879.41
2022-09-12T21:00:39.089Z,97878.46
2022-09-12T21:03:10.678Z,97873.48
2022-09-12T21:05:40.802Z,97876.80
2022-09-12T21:08:12.729Z,97873.34
2022-09-12T21:10:45.120Z,97875.15
2022-09-12T21:13:19.230Z,97870.33
2022-09-12T21:15:50.947Z,97869.34
2022-09-12T21:18:22.818Z,97868.20
2022-09-12T21:20:53.788Z,97871.04
2022-09-12T21:23:26.502Z,97873.84
2022-09-12T21:25:59.454Z,97872.55
2022-09-12T21:28:31.034Z,97872.48
2022-09-12T21:31:01.363Z,97877.02
2022-09-12T21:33:32.864Z,97883.27
2022-09-12T21:36:06.414Z,97880.98
2022-09-12T21:38:38.233Z,97882.27
2022-09-12T21:41:11.389Z,97882.55
2022-09-12T21:43:43.536Z,97881.77
2022-09-12T21:46:15.187Z,97878.34
2022-09-12T21:48:46.733Z,97878.42
2022-09-12T21:51:18.171Z,97877.69
2022-09-12T21:53:49.758Z,97873.19
2022-09-12T21:56:21.427Z,97870.88
2022-09-12T21:58:52.849Z,97867.61
2022-09-12T22:01:24.415Z,97864.82
2022-09-12T22:03:55.913Z,97863.14
2022-09-12T22:06:29.620Z,97858.65
2022-09-12T22:09:01.017Z,97863.55
2022-09-12T22:11:32.467Z,97862.58
2022-09-12T22:14:03.905Z,97860.48
2022-09-12T22:16:35.414Z,97857.88
2022-09-12T22:19:05.575Z,97854.86
2022-09-12T22:21:57.155Z,97853.55
2022-09-12T22:24:29.910Z,97852.21
2022-09-12T22:27:05.633Z,97852.30
2022-09-12T22:29:37.184Z,97851.97
2022-09-12T22:32:10.120Z,97846.45
2022-09-12T22:34:41.877Z,97843.30
2022-09-12T22:37:13.645Z,97842.50
2022-09-12T22:39:45.097Z,97844.46
2022-09-12T22:42:16.567Z,97845.36
2022-09-12T22:44:46.519Z,97842.17
2022-09-12T22:47:19.992Z,97841.88
2022-09-12T22:49:51.435Z,97845.52
2022-09-12T22:52:22.889Z,97846.56
2022-09-12T22:54:54.586Z,97845.80
2022-09-12T22:57:26.110Z,97845.02
2022-09-12T22:59:56.041Z,97846.38
2022-09-12T23:02:27.471Z,97847.77
2022-09-12T23:04:59.144Z,97847.73
2022-09-12T23:07:30.782Z,97846.73
2022-09-12T23:10:00.740Z,97844.11
2022-09-12T23:12:33.407Z,97843.68
2022-09-12T23:15:05.226Z,97844.69
2022-09-12T23:17:36.625Z,97840.83
2022-09-12T23:20:09.817Z,97841.02
2022-09-12T23:22:41.297Z,97840.86
2022-09-12T23:25:12.858Z,97842.10
2022-09-12T23:27:43.314Z,97842.60
2022-09-12T23:30:21.515Z,97841.73
2022-09-12T23:32:53.148Z,97842.81
2022-09-12T23:35:24.592Z,97841.52
2022-09-12T23:37:56.137Z,97844.34
2022-09-12T23:40:26.247Z,97844.09
2022-09-12T23:42:57.704Z,97837.02
2022-09-12T23:45:29.583Z,97835.27
2022-09-12T23:48:01.073Z,97834.80
2022-09-12T23:50:32.504Z,97830.27
2022-09-12T23:53:07.221Z,97827.51
2022-09-12T23:55:38.796Z,97827.09
2022-09-12T23:58:11.240Z,97823.66
